Latest Weather Observations for Newcastle Nobbys

IDN60901

Issued at 11:51 am EST Tuesday 27 June 2017 (issued every 10 minutes, with the page automatically refreshed every 10 minutes)

About weather observations | Map of Sydney area stations | Latest observations for Sydney area | Other Formats
Station Details ID: 061055 Name: NEWCASTLE NOBBYS SIGNAL STATION AWS Lat: -32.92 Lon: 151.80 Height: 33.0 m
Data from the previous 72 hours. | See also: Recent months at Newcastle Nobbys
Date/Time
EST
Temp
°C
App
Temp
°C
Dew
Point
°C
Rel
Hum
%
Delta-T
°C
Wind Press
QNH
hPa
Press
MSL
hPa
Rain since
9am
mm
Dir  Spd
km/h
Gust
km/h
Spd
kts
Gust
kts
27/11:30am 15.7 - - - - NW 9 13 5 7 - - 0.0
27/11:00am 15.6 - - - - NW 9 13 5 7 - - 0.0
27/10:30am 14.4 - - - - NW 11 15 6 8 - - 0.0
27/10:00am 12.7 - - - - NW 13 17 7 9 - - 0.0
27/09:30am 10.6 - - - - NW 15 17 8 9 - - 0.0
27/09:00am 10.6 - - - - NW 13 15 7 8 - - 0.0
27/08:30am 8.7 - - - - WNW 13 15 7 8 - - 0.0
27/08:00am 8.3 - - - - WNW 11 13 6 7 - - 0.0
27/07:30am 7.6 - - - - WNW 11 13 6 7 - - 0.0
27/07:00am 7.6 - - - - WNW 11 13 6 7 - - 0.0
27/06:30am 7.8 - - - - WNW 11 13 6 7 - - 0.0
27/06:00am 8.1 - - - - WNW 11 13 6 7 - - 0.0
27/05:30am 7.9 - - - - WNW 11 13 6 7 - - 0.0
27/05:00am 7.6 - - - - WNW 9 11 5 6 - - 0.0
27/04:30am 7.7 - - - - W 11 15 6 8 - - 0.0
27/04:00am 8.2 - - - - WNW 13 17 7 9 - - 0.0
27/03:30am 8.6 - - - - WNW 13 15 7 8 - - 0.0
27/03:00am 9.1 - - - - WNW 13 19 7 10 - - 0.0
27/02:30am 9.6 - - - - NW 11 15 6 8 - - 0.0
27/02:00am 9.6 - - - - WNW 11 13 6 7 - - 0.0
27/01:30am 10.3 - - - - NW 11 13 6 7 - - 0.0
27/01:00am 10.7 - - - - WNW 9 11 5 6 - - 0.0
27/12:30am 10.8 - - - - WNW 11 13 6 7 - - 0.0
27/12:00am 11.0 - - - - WNW 11 13 6 7 - - 0.0
 
Date/Time
EST
Temp
°C
App
Temp
°C
Dew
Point
°C
Rel
Hum
%
Delta-T
°C
Wind Press
QNH
hPa
Press
MSL
hPa
Rain since
9am
mm
Dir  Spd
km/h
Gust
km/h
Spd
kts
Gust
kts
26/11:30pm 11.1 - - - - WNW 9 11 5 6 - - 0.0
26/11:00pm 11.4 - - - - WNW 9 13 5 7 - - 0.0
26/10:30pm 12.7 - - - - NNW 7 11 4 6 - - 0.0
26/10:00pm 13.6 - - - - W 7 9 4 5 - - 0.0
26/09:30pm 15.4 - - - - WSW 4 6 2 3 - - 0.0
26/09:00pm 16.0 - - - - SE 9 11 5 6 - - 0.0
26/08:30pm 16.0 - - - - SSW 4 7 2 4 - - 0.0
26/08:00pm 16.1 - - - - SSE 9 13 5 7 - - 0.0
26/07:30pm 16.1 - - - - S 11 13 6 7 - - 0.0
26/07:00pm 16.1 - - - - SSE 9 15 5 8 - - 0.0
26/06:30pm 16.0 - - - - S 11 17 6 9 - - 0.0
26/06:00pm 16.1 - - - - S 11 17 6 9 - - 0.0
26/05:30pm 15.9 - - - - S 11 19 6 10 - - 0.0
26/05:00pm 16.0 - - - - S 11 15 6 8 - - 0.0
26/04:30pm 16.4 - - - - S 13 17 7 9 - - 0.0
26/04:00pm 17.1 - - - - S 13 19 7 10 - - 0.0
26/03:30pm 16.7 - - - - S 19 22 10 12 - - 0.0
26/03:00pm 16.8 - - - - S 19 24 10 13 - - 0.0
26/02:30pm 16.6 - - - - S 17 20 9 11 - - 0.0
26/02:00pm 17.2 - - - - S 15 20 8 11 - - 0.0
26/01:30pm 16.9 - - - - S 15 20 8 11 - - 0.0
26/01:00pm 16.9 - - - - SSW 13 19 7 10 - - 0.0
26/12:30pm 18.0 - - - - SW 15 20 8 11 - - 0.0
26/12:00pm 17.3 - - - - SW 13 20 7 11 - - 0.0
26/11:30am 16.8 - - - - SSW 15 26 8 14 - - 0.0
26/11:00am 17.6 - - - - SW 11 26 6 14 - - 0.0
26/10:30am 17.0 - - - - NW 7 13 4 7 - - 0.0
26/10:00am 15.8 - - - - NW 15 17 8 9 - - 0.0
26/09:30am 14.8 - - - - NW 11 17 6 9 - - 0.0
26/09:00am 13.7 - - - - NW 13 17 7 9 - - 0.0
26/08:30am 13.2 - - - - WNW 13 15 7 8 - - 0.0
26/08:00am 11.5 - - - - NW 13 15 7 8 - - 0.0
26/07:30am 10.4 - - - - WNW 11 13 6 7 - - 0.0
26/07:00am 9.7 - - - - NW 11 13 6 7 - - 0.0
26/06:30am 10.0 - - - - WNW 11 13 6 7 - - 0.0
26/06:00am 9.8 - - - - NW 13 15 7 8 - - 0.0
26/05:30am 10.2 - - - - NW 13 17 7 9 - - 0.0
26/05:00am 10.5 - - - - NW 11 15 6 8 - - 0.0
26/04:30am 10.3 - - - - WNW 9 11 5 6 - - 0.0
26/04:00am 10.6 - - - - WNW 9 13 5 7 - - 0.0
26/03:30am 10.6 - - - - WNW 9 11 5 6 - - 0.0
26/03:00am 10.8 - - - - WNW 9 11 5 6 - - 0.0
26/02:30am 11.2 - - - - WNW 9 11 5 6 - - 0.0
26/02:00am 10.9 - - - - WNW 7 9 4 5 - - 0.0
26/01:30am 11.3 - - - - WNW 9 11 5 6 - - 0.0
26/01:00am 12.0 - - - - NW 9 13 5 7 - - 0.0
26/12:30am 12.6 - - - - WNW 7 9 4 5 - - 0.0
26/12:00am 12.7 - - - - W 7 9 4 5 - - 0.0
 
Date/Time
EST
Temp
°C
App
Temp
°C
Dew
Point
°C
Rel
Hum
%
Delta-T
°C
Wind Press
QNH
hPa
Press
MSL
hPa
Rain since
9am
mm
Dir  Spd
km/h
Gust
km/h
Spd
kts
Gust
kts
25/11:30pm 13.0 - - - - W 9 13 5 7 - - 0.0
25/11:00pm 13.3 - - - - WNW 11 13 6 7 - - 0.0
25/10:30pm 14.7 - - - - WNW 13 15 7 8 - - 0.0
25/10:00pm 15.5 - - - - WSW 9 15 5 8 - - 0.0
25/09:30pm 15.8 - - - - SW 13 19 7 10 - - 0.0
25/09:00pm 15.9 - - - - SW 11 17 6 9 - - 0.0
25/08:30pm 16.1 - - - - SW 13 20 7 11 - - 0.0
25/08:00pm 16.6 - - - - WSW 11 19 6 10 - - 0.0
25/07:30pm 17.1 - - - - WSW 11 17 6 9 - - 0.0
25/07:00pm 16.6 - - - - WSW 11 11 6 6 - - 0.0
25/06:30pm 16.9 - - - - WSW 7 11 4 6 - - 0.0
25/06:00pm 16.6 - - - - W 7 9 4 5 - - 0.0
25/05:30pm 16.9 - - - - W 7 7 4 4 - - 0.0
25/05:00pm 17.4 - - - - WNW 7 13 4 7 - - 0.0
25/04:30pm 18.4 - - - - WNW 11 17 6 9 - - 0.0
25/04:00pm 19.1 - - - - WNW 15 22 8 12 - - 0.0
25/03:30pm 19.7 - - - - WNW 17 22 9 12 - - 0.0
25/03:00pm 19.8 - - - - WNW 19 24 10 13 - - 0.0
25/02:30pm 20.4 - - - - W 17 26 9 14 - - 0.0
25/02:00pm 20.2 - - - - WNW 19 28 10 15 - - 0.0
25/01:30pm 19.8 - - - - WNW 15 24 8 13 - - 0.0
25/01:00pm 19.4 - - - - WNW 15 22 8 12 - - 0.0
25/12:30pm 19.2 - - - - WNW 17 22 9 12 - - 0.0
25/12:00pm 18.4 - - - - WNW 26 35 14 19 - - 0.0
25/11:30am 18.8 - - - - WNW 19 32 10 17 - - 0.0
25/11:00am 18.1 - - - - W 19 28 10 15 - - 0.0
25/10:30am 16.6 - - - - NW 15 22 8 12 - - 0.0
25/10:00am 15.6 - - - - NW 13 19 7 10 - - 0.0
25/09:30am 14.7 - - - - NW 17 20 9 11 - - 0.0
25/09:00am 14.2 - - - - WNW 11 13 6 7 - - 0.0
25/08:30am 12.9 - - - - NW 13 19 7 10 - - 0.0
25/08:00am 11.7 - - - - WNW 13 17 7 9 - - 0.0
25/07:30am 10.7 - - - - WNW 11 15 6 8 - - 0.0
25/07:00am 10.4 - - - - WNW 11 15 6 8 - - 0.0
25/06:30am 10.2 - - - - WNW 13 19 7 10 - - 0.0
25/06:00am 10.2 - - - - WNW 15 19 8 10 - - 0.0
25/05:30am 10.4 - - - - WNW 13 17 7 9 - - 0.0
25/05:00am 10.4 - - - - WNW 11 15 6 8 - - 0.0
25/04:30am 10.6 - - - - WNW 11 13 6 7 - - 0.0
25/04:00am 10.3 - - - - WNW 9 13 5 7 - - 0.0
25/03:30am 10.8 - - - - WNW 11 17 6 9 - - 0.0
25/03:00am 10.8 - - - - NW 7 11 4 6 - - 0.0
25/02:30am 10.7 - - - - WNW 11 13 6 7 - - 0.0
25/02:00am 11.0 - - - - WNW 13 17 7 9 - - 0.0
25/01:30am 11.1 - - - - W 11 13 6 7 - - 0.0
25/01:00am 11.8 - - - - NW 7 13 4 7 - - 0.0
25/12:30am 11.8 - - - - NW 9 13 5 7 - - 0.0
25/12:00am 13.7 - - - - W 11 17 6 9 - - 0.0
 
Date/Time
EST
Temp
°C
App
Temp
°C
Dew
Point
°C
Rel
Hum
%
Delta-T
°C
Wind Press
QNH
hPa
Press
MSL
hPa
Rain since
9am
mm
Dir  Spd
km/h
Gust
km/h
Spd
kts
Gust
kts
24/11:30pm 13.9 - - - - WNW 13 15 7 8 - - 0.0
24/11:00pm 13.7 - - - - WSW 11 13 6 7 - - 0.0
24/10:30pm 13.4 - - - - W 9 13 5 7 - - 0.0
24/10:00pm 13.2 - - - - NW 11 13 6 7 - - 0.0
24/09:30pm 13.3 - - - - WNW 9 11 5 6 - - 0.0
24/09:00pm 13.4 - - - - WNW 11 15 6 8 - - 0.0
24/08:30pm 13.7 - - - - WNW 11 15 6 8 - - 0.0
24/08:00pm 14.9 - - - - NNW 7 9 4 5 - - 0.0
24/07:30pm 16.1 - - - - W 7 9 4 5 - - 0.0
24/07:00pm 15.8 - - - - W 7 9 4 5 - - 0.0
24/06:30pm 16.2 - - - - WNW 6 6 3 3 - - 0.0
24/06:00pm 16.7 - - - - WNW 9 9 5 5 - - 0.0
24/05:30pm 16.6 - - - - WNW 6 7 3 4 - - 0.0
24/05:00pm 17.0 - - - - NW 4 4 2 2 - - 0.0
24/04:30pm 18.3 - - - - NW 9 13 5 7 - - 0.0
24/04:00pm 18.9 - - - - WNW 17 20 9 11 - - 0.0
24/03:30pm 19.3 - - - - WNW 20 28 11 15 - - 0.0
24/03:00pm 19.6 - - - - WNW 22 28 12 15 - - 0.0
24/02:30pm 20.0 - - - - WNW 19 28 10 15 - - 0.0
24/02:00pm 19.6 - - - - WNW 24 32 13 17 - - 0.0
24/01:30pm 19.7 - - - - W 28 37 15 20 - - 0.0
24/01:00pm 19.5 - - - - W 28 41 15 22 - - 0.0
24/12:41pm 19.4 - - - - W 28 48 15 26 - - 0.0
24/12:30pm 19.7 - - - - W 24 35 13 19 - - 0.0
24/12:00pm 18.8 - - - - WNW 28 39 15 21 - - 0.0

Latest Capital City Observations: Canberra | Sydney | Melbourne | Brisbane | Adelaide | Perth | Hobart | Darwin

Other Formats:

Comma delimited format used in spreadsheet applications
http://www.bom.gov.au/fwo/IDN60901/IDN60901.94774.axf

JavaScript Object Notation format (JSON) in row-major order
http://www.bom.gov.au/fwo/IDN60901/IDN60901.94774.json